METAR Data
IDs: Format: Raw Decoded Include TAF

Data at: 0207 UTC 16 Jan 2019

KSJT 160151Z 21004KT 8SM CLR 06/04 A3020 RMK AO2 SLP233 T00560044
KSJT 160051Z 19006KT 10SM CLR 07/04 A3019 RMK AO2 SLP228 T00670044
KSJT 152351Z 21007KT 10SM FEW014 09/06 A3018 RMK AO2 SLP222 T00890056 10106 20089 56007
KSJT 152251Z 22010KT 10SM FEW017 10/06 A3019 RMK AO2 SLP224 T01000056
KSJT 152151Z 22011KT 10SM SCT017 11/06 A3020 RMK AO2 SLP226 T01060056
KSJT 152139Z 23011KT 10SM BKN017 11/06 A3019 RMK AO2 T01060056
KSJT 152132Z 24009KT 10SM SCT017 11/06 A3019 RMK AO2 T01060056
KSJT 152051Z 24011KT 10SM OVC016 10/06 A3020 RMK AO2 SLP230 T01000056 56031
KSJT 152023Z 23010KT 10SM OVC015 10/06 A3021 RMK AO2 T01000056
KSJT 151951Z 20011KT 10SM OVC014 09/06 A3021 RMK AO2 SLP233 T00940056
KSJT 151851Z 21008KT 10SM OVC015 09/05 A3025 RMK AO2 SLP247 T00890050
KSJT 151841Z 20008KT 10SM OVC015 09/05 A3026 RMK AO2 T00940050
KSJT 151751Z 21010KT 10SM OVC014 09/05 A3030 RMK AO2 SLP263 T00890050 10089 20067 50004
KSJT 151651Z 18006KT 10SM OVC012 08/06 A3031 RMK AO2 SLP267 T00830056
KSJT 151616Z 20008KT 10SM OVC013 08/05 A3031 RMK AO2 T00830050
KSJT 151551Z 19006KT 10SM OVC015 08/06 A3030 RMK AO2 SLP265 T00830056
KSJT 151451Z 00000KT 10SM OVC022 07/05 A3029 RMK AO2 SLP260 T00720050 50012
KSJT 151351Z 00000KT 10SM OVC022 07/04 A3030 RMK AO2 SLP265 T00670044
KSJT 151251Z 00000KT 10SM OVC022 07/04 A3027 RMK AO2 SLP255 T00670044
KSJT 151151Z AUTO 00000KT 9SM OVC023 07/04 A3025 RMK AO2 SLP247 T00670044 10072 20067 58011
KSJT 151051Z AUTO 00000KT 10SM OVC025 07/04 A3027 RMK AO2 SLP255 T00670044
KSJT 150951Z AUTO 00000KT 10SM OVC024 07/04 A3029 RMK AO2 SLP260 T00670044
KSJT 150851Z AUTO 00000KT 10SM OVC024 07/04 A3028 RMK AO2 SLP260 T00670039 56011
KSJT 150751Z AUTO 00000KT 10SM OVC025 07/04 A3029 RMK AO2 SLP262 T00670039
KSJT 150651Z AUTO 00000KT 10SM OVC025 07/04 A3030 RMK AO2 SLP267 T00670039
KSJT 150551Z AUTO 00000KT 10SM OVC026 07/03 A3032 RMK AO2 SLP274 T00670033 10072 20067 400720017 55005
KSJT 150451Z AUTO 08003KT 10SM OVC028 07/03 A3032 RMK AO2 SLP274 T00670028
KSJT 150411Z AUTO 06003KT 10SM OVC029 07/03 A3032 RMK AO2 T00670028
KSJT 150351Z AUTO 04003KT 10SM OVC030 07/03 A3033 RMK AO2 SLP277 T00670028
KSJT 150251Z AUTO 10003KT 10SM OVC031 07/03 A3033 RMK AO2 SLP281 T00670033 50006
KSJT 150151Z 00000KT 10SM OVC032 07/03 A3035 RMK AO2 SLP285 T00670033
KSJT 150051Z 00000KT 10SM OVC032 07/03 A3033 RMK AO2 SLP280 T00720028
KSJT 142351Z 03003KT 10SM OVC032 07/02 A3032 RMK AO2 SLP274 T00720022 10072 20039 56013
KSJT 142251Z 00000KT 10SM OVC032 07/02 A3032 RMK AO2 SLP277 T00720022
KSJT 142151Z 00000KT 10SM OVC034 07/02 A3033 RMK AO2 SLP280 T00670017
KSJT 142051Z 00000KT 10SM OVC032 06/01 A3036 RMK AO2 SLP289 T00610011 56027
KSJT 141951Z 00000KT 10SM OVC032 05/01 A3037 RMK AO2 SLP294 T00500011
KSJT 141923Z 07003KT 10SM OVC030 05/01 A3038 RMK AO2 T00500006
KSJT 141851Z 08003KT 10SM OVC029 04/01 A3040 RMK AO2 SLP303 T00440006
KSJT 141819Z 05003KT 10SM OVC029 04/01 A3042 RMK AO2 T00440006
KSJT 141751Z 00000KT 10SM BKN030 OVC038 04/01 A3044 RMK AO2 SLP318 T00390006 10044 20017 50002
KSJT 141651Z 00000KT 10SM OVC037 03/00 A3046 RMK AO2 SLP326 T00330000
KSJT 141551Z 07003KT 9SM OVC035 03/00 A3046 RMK AO2 SLP325 T00280000
KSJT 141451Z 06003KT 10SM OVC036 02/00 A3043 RMK AO2 SLP319 T00220000 53008